Time;durP1;ratioP1;P1;durP2;ratioP2;P2;SDS_P1;SDS_P2;PMS_P1;PMS_P2;Temp;Humidity;BMP_temperature;BMP_pressure;BME280_temperature;BME280_humidity;BME280_pressure;Samples;Min_cycle;Max_cycle;Signal;HPM_P1;HPM_P2
2022/12/14 00:00:24;;;;;;;;;;;;;;;;;;1881480;28;7144;-62
2022/12/14 00:01:23;;;;;;;;;;;;;;;;;;1882082;28;7009;-62
2022/12/14 00:02:20;;;;;;;;;;;;;;;;;;1882609;28;7096;-62
2022/12/14 00:03:19;;;;;;;;;;;;;;;;;;1882046;28;7130;-62
2022/12/14 00:04:16;;;;;;;;;;;;;;;;;;1881566;28;7196;-62
2022/12/14 00:05:14;;;;;;;;;;;;;;;;;;1881825;28;7010;-62
2022/12/14 00:06:17;;;;;;;;;;;;;;;;;;1881645;28;7125;-64
2022/12/14 00:07:14;;;;;;;;;;;;;;;;;;1882731;28;7010;-64
2022/12/14 00:08:13;;;;;;;;;;;;;;;;;;1882030;28;7176;-62
2022/12/14 00:09:10;;;;;;;;;;;;;;;;;;1882174;28;7317;-62
2022/12/14 00:10:08;;;;;;;;;;;;;;;;;;1880901;28;7014;-62
2022/12/14 00:11:05;;;;;;;;;;;;;;;;;;1880989;28;7913;-63
2022/12/14 00:12:03;;;;;;;;;;;;;;;;;;1882203;28;7297;-63
2022/12/14 00:13:01;;;;;;;;;;;;;;;;;;1882576;28;7102;-63
2022/12/14 00:13:59;;;;;;;;;;;;;;;;;;1881680;28;7042;-63
2022/12/14 00:14:57;;;;;;;;;;;;;;;;;;1882980;28;8056;-63
2022/12/14 00:15:54;;;;;;;;;;;;;;;;;;1883165;28;7109;-63
2022/12/14 00:16:51;;;;;;;;;;;;;;;;;;1883643;28;7143;-62
2022/12/14 00:17:49;;;;;;;;;;;;;;;;;;1883012;28;7128;-64
2022/12/14 00:18:51;;;;;;;;;;;;;;;;;;1883232;28;7001;-63
2022/12/14 00:19:48;;;;;;;;;;;;;;;;;;1883573;28;7005;-63
2022/12/14 00:20:46;;;;;;;;;;;;;;;;;;1875444;28;7005;-62
2022/12/14 00:21:44;;;;;;;;;;;;;;;;;;1868896;28;7005;-62
2022/12/14 00:22:41;;;;;;;;;;;;;;;;;;1874079;28;7014;-63
2022/12/14 00:23:40;;;;;;;;;;;;;;;;;;1882285;28;8033;-63
2022/12/14 00:24:37;;;;;;;;;;;;;;;;;;1883592;28;7312;-62
2022/12/14 00:25:35;;;;;;;;;;;;;;;;;;1882979;28;7092;-63
2022/12/14 00:26:33;;;;;;;;;;;;;;;;;;1883262;28;7131;-61
2022/12/14 00:27:30;;;;;;;;;;;;;;;;;;1883592;28;8008;-62
2022/12/14 00:28:27;;;;;;;;;;;;;;;;;;1883276;28;7101;-62
2022/12/14 00:29:25;;;;;;;;;;;;;;;;;;1881402;28;7010;-63
2022/12/14 00:30:23;;;;;;;;;;;;;;;;;;1883492;28;8018;-63
2022/12/14 00:31:21;;;;;;;;;;;;;;;;;;1883556;28;7006;-62
2022/12/14 00:32:19;;;;;;;;;;;;;;;;;;1883452;28;7021;-63
2022/12/14 00:33:16;;;;;;;;;;;;;;;;;;1883114;28;7101;-64
2022/12/14 00:34:13;;;;;;;;;;;;;;;;;;1883289;28;8034;-62
2022/12/14 00:35:14;;;;;;;;;;;;;;;;;;1882344;28;7270;-63
2022/12/14 00:36:12;;;;;;;;;;;;;;;;;;1882578;28;7352;-62
2022/12/14 00:37:09;;;;;;;;;;;;;;;;;;1882947;28;7120;-62
2022/12/14 00:38:07;;;;;;;;;;;;;;;;;;1883612;28;7030;-63
2022/12/14 00:39:04;;;;;;;;;;;;;;;;;;1883395;28;7006;-63
2022/12/14 00:40:03;;;;;;;;;;;;;;;;;;1883896;28;7026;-63
2022/12/14 00:41:00;;;;;;;;;;;;;;;;;;1882020;28;7121;-64
2022/12/14 00:41:57;;;;;;;;;;;;;;;;;;1882811;28;7110;-62
2022/12/14 00:42:55;;;;;;;;;;;;;;;;;;1882918;28;8019;-63
2022/12/14 00:43:52;;;;;;;;;;;;;;;;;;1882734;28;7107;-62
2022/12/14 00:44:50;;;;;;;;;;;;;;;;;;1883343;28;7117;-64
2022/12/14 00:45:47;;;;;;;;;;;;;;;;;;1882849;28;7006;-62
2022/12/14 00:46:44;;;;;;;;;;;;;;;;;;1881814;28;7010;-62
2022/12/14 00:47:42;;;;;;;;;;;;;;;;;;1882146;28;7156;-62
2022/12/14 00:48:41;;;;;;;;;;;;;;;;;;1883220;28;7828;-64
2022/12/14 00:49:38;;;;;;;;;;;;;;;;;;1883036;28;8027;-62
2022/12/14 00:50:35;;;;;;;;;;;;;;;;;;1882686;28;8044;-62
2022/12/14 00:51:33;;;;;;;;;;;;;;;;;;1882964;28;7014;-61
2022/12/14 00:52:31;;;;;;;;;;;;;;;;;;1883220;28;7152;-61
2022/12/14 00:53:28;;;;;;;;;;;;;;;;;;1883309;28;7041;-61
2022/12/14 00:54:25;;;;;;;;;;;;;;;;;;1883879;28;7046;-63
2022/12/14 00:55:23;;;;;;;;;;;;;;;;;;1883385;28;8012;-62
2022/12/14 00:56:20;;;;;;;;;;;;;;;;;;1882113;28;7097;-63
2022/12/14 00:57:17;;;;;;;;;;;;;;;;;;1883292;28;7069;-62
2022/12/14 00:58:17;;;;;;;;;;;;;;;;;;1874897;28;7030;-63
2022/12/14 00:59:16;;;;;;;;;;;;;;;;;;1875298;28;7010;-61
2022/12/14 01:00:16;;;;;;;;;;;;;;;;;;1882024;28;7775;-62
2022/12/14 01:01:13;;;;;;;;;;;;;;;;;;1881935;28;7088;-62
2022/12/14 01:02:11;;;;;;;;;;;;;;;;;;1882319;28;7345;-64
2022/12/14 01:03:09;;;;;;;;;;;;;;;;;;1881742;28;8012;-64
2022/12/14 01:04:16;;;;;;;;;;;;;;;;;;1882864;28;7033;-63
2022/12/14 01:05:13;;;;;;;;;;;;;;;;;;1883009;28;8027;-63
2022/12/14 01:06:18;;;;;;;;;;;;;;;;;;1882621;28;7013;-65
2022/12/14 01:07:16;;;;;;;;;;;;;;;;;;1882955;28;7101;-63
2022/12/14 01:08:13;;;;;;;;;;;;;;;;;;1883496;28;8057;-63
2022/12/14 01:09:11;;;;;;;;;;;;;;;;;;1882987;28;7381;-63
2022/12/14 01:10:08;;;;;;;;;;;;;;;;;;1883071;28;8016;-62
2022/12/14 01:11:06;;;;;;;;;;;;;;;;;;1882602;28;7038;-63
2022/12/14 01:12:04;;;;;;;;;;;;;;;;;;1883033;28;7148;-63
2022/12/14 01:13:01;;;;;;;;;;;;;;;;;;1882637;28;7006;-63
2022/12/14 01:13:59;;;;;;;;;;;;;;;;;;1882727;28;7002;-63
2022/12/14 01:14:56;;;;;;;;;;;;;;;;;;1882820;28;8024;-62
2022/12/14 01:15:53;;;;;;;;;;;;;;;;;;1882930;28;7051;-62
2022/12/14 01:16:51;;;;;;;;;;;;;;;;;;1882680;28;7005;-64
2022/12/14 01:17:50;;;;;;;;;;;;;;;;;;1882281;28;7991;-63
2022/12/14 01:18:47;;;;;;;;;;;;;;;;;;1882988;28;7140;-62
2022/12/14 01:19:44;;;;;;;;;;;;;;;;;;1883076;28;7092;-64
2022/12/14 01:20:45;;;;;;;;;;;;;;;;;;1883280;28;7010;-62
2022/12/14 01:21:42;;;;;;;;;;;;;;;;;;1882700;28;7026;-63
2022/12/14 01:22:40;;;;;;;;;;;;;;;;;;1874988;28;7006;-63
2022/12/14 01:23:37;;;;;;;;;;;;;;;;;;1874892;28;7010;-63
2022/12/14 01:24:35;;;;;;;;;;;;;;;;;;1880426;28;7096;-62
2022/12/14 01:25:33;;;;;;;;;;;;;;;;;;1881110;28;7134;-63
2022/12/14 01:26:32;;;;;;;;;;;;;;;;;;1883014;28;7009;-62
2022/12/14 01:27:29;;;;;;;;;;;;;;;;;;1882998;28;7029;-62
2022/12/14 01:28:27;;;;;;;;;;;;;;;;;;1883125;28;7324;-63
2022/12/14 01:29:24;;;;;;;;;;;;;;;;;;1882767;28;8028;-62
2022/12/14 01:30:21;;;;;;;;;;;;;;;;;;1883044;28;7006;-62
2022/12/14 01:31:20;;;;;;;;;;;;;;;;;;1882359;28;7974;-62
2022/12/14 01:32:18;;;;;;;;;;;;;;;;;;1882624;28;7089;-62
2022/12/14 01:33:15;;;;;;;;;;;;;;;;;;1882408;28;9989;-61
2022/12/14 01:34:13;;;;;;;;;;;;;;;;;;1883129;28;7092;-63
2022/12/14 01:35:10;;;;;;;;;;;;;;;;;;1882465;28;7097;-62
2022/12/14 01:36:09;;;;;;;;;;;;;;;;;;1883329;28;7010;-64
2022/12/14 01:37:06;;;;;;;;;;;;;;;;;;1883005;28;7009;-63
2022/12/14 01:38:04;;;;;;;;;;;;;;;;;;1882612;28;7022;-62
2022/12/14 01:39:03;;;;;;;;;;;;;;;;;;1882747;28;8236;-63
2022/12/14 01:40:01;;;;;;;;;;;;;;;;;;1883247;28;7381;-63
2022/12/14 01:40:58;;;;;;;;;;;;;;;;;;1881717;28;8141;-63
2022/12/14 01:41:56;;;;;;;;;;;;;;;;;;1874586;28;7034;-64
2022/12/14 01:42:53;;;;;;;;;;;;;;;;;;1875109;28;7034;-62
2022/12/14 01:43:55;;;;;;;;;;;;;;;;;;1881798;28;7005;-62
2022/12/14 01:44:54;;;;;;;;;;;;;;;;;;1882780;28;7137;-62
2022/12/14 01:45:54;;;;;;;;;;;;;;;;;;1881587;28;7030;-63
2022/12/14 01:47:12;;;;;;;;;;;;;;;;;;1882615;28;7013;-61
2022/12/14 01:48:12;;;;;;;;;;;;;;;;;;1877911;28;7013;-64
2022/12/14 01:49:27;;;;;;;;;;;;;;;;;;1883304;28;7018;-62
2022/12/14 01:50:25;;;;;;;;;;;;;;;;;;1881634;28;8073;-61
2022/12/14 01:51:24;;;;;;;;;;;;;;;;;;1882452;28;7105;-62
2022/12/14 01:52:30;;;;;;;;;;;;;;;;;;1882466;28;7021;-62
2022/12/14 01:53:27;;;;;;;;;;;;;;;;;;1882643;28;7096;-61
2022/12/14 01:54:27;;;;;;;;;;;;;;;;;;1882349;28;8037;-61
2022/12/14 01:55:46;;;;;;;;;;;;;;;;;;1873414;28;7064;-63
2022/12/14 01:56:46;;;;;;;;;;;;;;;;;;1876766;28;7110;-62
2022/12/14 01:57:49;;;;;;;;;;;;;;;;;;1882432;28;7105;-63
2022/12/14 01:58:46;;;;;;;;;;;;;;;;;;1882466;28;7089;-63
2022/12/14 01:59:46;;;;;;;;;;;;;;;;;;1882542;28;7129;-64
2022/12/14 02:00:44;;;;;;;;;;;;;;;;;;1882955;28;7006;-64
2022/12/14 02:01:41;;;;;;;;;;;;;;;;;;1882530;28;7027;-64
2022/12/14 02:02:43;;;;;;;;;;;;;;;;;;1882334;28;8044;-62
2022/12/14 02:03:45;;;;;;;;;;;;;;;;;;1874725;28;7270;-62
2022/12/14 02:04:49;;;;;;;;;;;;;;;;;;1874739;28;7085;-63
2022/12/14 02:05:51;;;;;;;;;;;;;;;;;;1874552;28;8028;-62
2022/12/14 02:06:50;;;;;;;;;;;;;;;;;;1874334;28;7010;-62
2022/12/14 02:07:56;;;;;;;;;;;;;;;;;;1882395;28;7084;-63
2022/12/14 02:08:55;;;;;;;;;;;;;;;;;;1882190;28;7006;-64
2022/12/14 02:09:56;;;;;;;;;;;;;;;;;;1881761;28;8053;-63
2022/12/14 02:10:55;;;;;;;;;;;;;;;;;;1881472;28;7010;-63
2022/12/14 02:12:11;;;;;;;;;;;;;;;;;;1882664;28;7091;-64
2022/12/14 02:13:31;;;;;;;;;;;;;;;;;;1882186;28;7014;-62
2022/12/14 02:14:29;;;;;;;;;;;;;;;;;;1874908;28;7010;-61
2022/12/14 02:15:27;;;;;;;;;;;;;;;;;;1882290;28;7205;-62
2022/12/14 02:16:24;;;;;;;;;;;;;;;;;;1873449;28;7193;-62
2022/12/14 02:17:21;;;;;;;;;;;;;;;;;;1874300;28;7125;-63
2022/12/14 02:18:20;;;;;;;;;;;;;;;;;;1880101;28;7137;-62
2022/12/14 02:19:18;;;;;;;;;;;;;;;;;;1882192;28;7006;-63
2022/12/14 02:20:16;;;;;;;;;;;;;;;;;;1882561;28;8006;-62
2022/12/14 02:21:13;;;;;;;;;;;;;;;;;;1882266;28;7100;-62
2022/12/14 02:22:22;;;;;;;;;;;;;;;;;;1882372;28;8022;-63
2022/12/14 02:23:34;;;;;;;;;;;;;;;;;;1882139;28;7026;-64
2022/12/14 02:24:47;;;;;;;;;;;;;;;;;;1882611;28;7014;-63
2022/12/14 02:26:06;;;;;;;;;;;;;;;;;;1881963;28;7005;-61
2022/12/14 02:27:06;;;;;;;;;;;;;;;;;;1882662;28;7009;-62
2022/12/14 02:28:20;;;;;;;;;;;;;;;;;;1882705;28;7050;-63
2022/12/14 02:29:26;;;;;;;;;;;;;;;;;;1882264;28;7006;-64
2022/12/14 02:30:25;;;;;;;;;;;;;;;;;;1881660;28;7173;-64
2022/12/14 02:31:39;;;;;;;;;;;;;;;;;;1882470;28;8043;-62
2022/12/14 02:32:45;;;;;;;;;;;;;;;;;;1882112;28;7101;-64
2022/12/14 02:33:46;;;;;;;;;;;;;;;;;;1881287;28;8036;-62
2022/12/14 02:35:03;;;;;;;;;;;;;;;;;;1882310;28;7010;-62
2022/12/14 02:36:21;;;;;;;;;;;;;;;;;;1882240;28;8091;-62
2022/12/14 02:37:30;;;;;;;;;;;;;;;;;;1877310;28;7344;-62
2022/12/14 02:38:30;;;;;;;;;;;;;;;;;;1882090;28;7140;-63
2022/12/14 02:39:41;;;;;;;;;;;;;;;;;;1882262;28;7710;-62
2022/12/14 02:40:46;;;;;;;;;;;;;;;;;;1881565;28;7221;-63
2022/12/14 02:41:43;;;;;;;;;;;;;;;;;;1873916;28;7133;-62
2022/12/14 02:42:53;;;;;;;;;;;;;;;;;;1874034;28;7378;-62
2022/12/14 02:44:09;;;;;;;;;;;;;;;;;;1882472;28;7010;-62
2022/12/14 02:45:18;;;;;;;;;;;;;;;;;;1882367;28;9060;-62
2022/12/14 02:46:31;;;;;;;;;;;;;;;;;;1882133;28;7010;-64
2022/12/14 02:47:43;;;;;;;;;;;;;;;;;;1881418;28;7014;-63
2022/12/14 02:48:47;;;;;;;;;;;;;;;;;;1882690;28;7006;-64
2022/12/14 02:49:59;;;;;;;;;;;;;;;;;;1881469;28;7006;-61
2022/12/14 02:51:05;;;;;;;;;;;;;;;;;;1882648;28;7077;-64
2022/12/14 02:52:18;;;;;;;;;;;;;;;;;;1882446;28;8109;-63
2022/12/14 02:53:24;;;;;;;;;;;;;;;;;;1868216;29;7014;-62
2022/12/14 02:54:40;;;;;;;;;;;;;;;;;;1868310;29;8001;-63
2022/12/14 02:55:41;;;;;;;;;;;;;;;;;;1867517;29;7238;-62
2022/12/14 02:56:45;;;;;;;;;;;;;;;;;;1867796;29;7010;-63
2022/12/14 02:57:42;;;;;;;;;;;;;;;;;;1867466;29;7125;-61
2022/12/14 02:58:45;;;;;;;;;;;;;;;;;;1867792;29;7093;-63
2022/12/14 02:59:43;;;;;;;;;;;;;;;;;;1868022;29;7010;-63
2022/12/14 03:00:41;;;;;;;;;;;;;;;;;;1867718;29;7023;-63
2022/12/14 03:01:41;;;;;;;;;;;;;;;;;;1868304;29;7082;-63
2022/12/14 03:02:45;;;;;;;;;;;;;;;;;;1867629;29;8051;-64
2022/12/14 03:03:43;;;;;;;;;;;;;;;;;;1867689;29;7200;-63
2022/12/14 03:04:46;;;;;;;;;;;;;;;;;;1867941;29;7109;-64
2022/12/14 03:05:53;;;;;;;;;;;;;;;;;;1868109;29;8031;-63
2022/12/14 03:07:02;;;;;;;;;;;;;;;;;;1866980;29;7106;-61
2022/12/14 03:08:05;;;;;;;;;;;;;;;;;;1867919;29;7010;-62
2022/12/14 03:09:13;;;;;;;;;;;;;;;;;;1867690;29;7202;-63
2022/12/14 03:10:29;;;;;;;;;;;;;;;;;;1868153;29;7030;-63
2022/12/14 03:11:42;;;;;;;;;;;;;;;;;;1867674;29;7357;-63
2022/12/14 03:12:44;;;;;;;;;;;;;;;;;;1867276;29;7022;-62
2022/12/14 03:13:54;;;;;;;;;;;;;;;;;;1867198;29;7014;-63
2022/12/14 03:14:54;;;;;;;;;;;;;;;;;;1867893;29;7112;-64
2022/12/14 03:16:14;;;;;;;;;;;;;;;;;;1866778;29;7149;-62
2022/12/14 03:17:22;;;;;;;;;;;;;;;;;;1868081;29;7257;-63
2022/12/14 03:18:23;;;;;;;;;;;;;;;;;;1868105;29;7397;-63
2022/12/14 03:19:28;;;;;;;;;;;;;;;;;;1866812;29;7074;-61
2022/12/14 03:20:30;;;;;;;;;;;;;;;;;;1867591;29;7133;-63
2022/12/14 03:21:31;;;;;;;;;;;;;;;;;;1867727;29;8020;-63
2022/12/14 03:22:36;;;;;;;;;;;;;;;;;;1867898;29;8014;-63
2022/12/14 03:23:37;;;;;;;;;;;;;;;;;;1868249;29;8216;-61
2022/12/14 03:24:44;;;;;;;;;;;;;;;;;;1867934;29;7297;-61
2022/12/14 03:25:41;;;;;;;;;;;;;;;;;;1866874;29;7991;-62
2022/12/14 03:26:44;;;;;;;;;;;;;;;;;;1868605;29;7187;-63
2022/12/14 03:27:58;;;;;;;;;;;;;;;;;;1868061;29;7086;-63
2022/12/14 03:29:00;;;;;;;;;;;;;;;;;;1868364;29;7086;-64
2022/12/14 03:30:00;;;;;;;;;;;;;;;;;;1867631;29;7120;-63
2022/12/14 03:31:06;;;;;;;;;;;;;;;;;;1867275;29;7010;-62
2022/12/14 03:32:10;;;;;;;;;;;;;;;;;;1867994;29;7010;-63
2022/12/14 03:33:13;;;;;;;;;;;;;;;;;;1868083;29;7078;-62
2022/12/14 03:34:14;;;;;;;;;;;;;;;;;;1874338;29;7340;-63
2022/12/14 03:35:17;;;;;;;;;;;;;;;;;;1874094;29;8386;-63
2022/12/14 03:36:40;;;;;;;;;;;;;;;;;;1867770;29;7865;-62
2022/12/14 03:37:41;;;;;;;;;;;;;;;;;;1866209;29;7059;-63
2022/12/14 03:38:41;;;;;;;;;;;;;;;;;;1866136;29;7034;-63
2022/12/14 03:39:41;;;;;;;;;;;;;;;;;;1868098;29;8050;-64
2022/12/14 03:40:45;;;;;;;;;;;;;;;;;;1867724;29;7057;-63
2022/12/14 03:41:57;;;;;;;;;;;;;;;;;;1868174;29;8006;-62
2022/12/14 03:42:55;;;;;;;;;;;;;;;;;;1866963;29;7092;-61
2022/12/14 03:44:05;;;;;;;;;;;;;;;;;;1867937;29;7009;-63
2022/12/14 03:45:09;;;;;;;;;;;;;;;;;;1867804;29;7010;-62
2022/12/14 03:46:14;;;;;;;;;;;;;;;;;;1867049;29;7140;-62
2022/12/14 03:47:30;;;;;;;;;;;;;;;;;;1867665;29;8104;-63
2022/12/14 03:48:40;;;;;;;;;;;;;;;;;;1867419;29;7101;-64
2022/12/14 03:49:48;;;;;;;;;;;;;;;;;;1869055;29;7010;-63
2022/12/14 03:50:45;;;;;;;;;;;;;;;;;;1868836;29;7010;-63
2022/12/14 03:51:53;;;;;;;;;;;;;;;;;;1868812;29;7100;-64
2022/12/14 03:52:59;;;;;;;;;;;;;;;;;;1880203;28;7096;-62
2022/12/14 03:54:06;;;;;;;;;;;;;;;;;;1883136;28;7092;-63
2022/12/14 03:55:15;;;;;;;;;;;;;;;;;;1883411;28;7088;-61
2022/12/14 03:56:18;;;;;;;;;;;;;;;;;;1883582;28;7986;-64
2022/12/14 03:57:38;;;;;;;;;;;;;;;;;;1883513;28;7109;-62
2022/12/14 03:58:35;;;;;;;;;;;;;;;;;;1883040;28;7316;-64
2022/12/14 03:59:46;;;;;;;;;;;;;;;;;;1883215;28;8019;-64
2022/12/14 04:00:51;;;;;;;;;;;;;;;;;;1883597;28;7117;-63
2022/12/14 04:02:03;;;;;;;;;;;;;;;;;;1882241;28;8016;-62
2022/12/14 04:03:09;;;;;;;;;;;;;;;;;;1883258;28;7245;-62
2022/12/14 04:04:26;;;;;;;;;;;;;;;;;;1882678;28;7050;-61
2022/12/14 04:05:29;;;;;;;;;;;;;;;;;;1882250;28;7105;-63
2022/12/14 04:06:39;;;;;;;;;;;;;;;;;;1883126;28;7006;-63
2022/12/14 04:07:42;;;;;;;;;;;;;;;;;;1882321;28;7148;-64
2022/12/14 04:08:44;;;;;;;;;;;;;;;;;;1883259;28;7117;-63
2022/12/14 04:09:41;;;;;;;;;;;;;;;;;;1882112;28;7667;-63
2022/12/14 04:19:05;;;;;;;;;;;;;;;;;;1859706;29;7010;-63
2022/12/14 04:20:02;;;;;;;;;;;;;;;;;;1860594;29;7219;-62
2022/12/14 04:21:05;;;;;;;;;;;;;;;;;;1876452;28;8030;-64
2022/12/14 04:22:09;;;;;;;;;;;;;;;;;;1882123;28;8021;-63
2022/12/14 04:23:14;;;;;;;;;;;;;;;;;;1883264;28;7010;-63
2022/12/14 04:26:56;;;;;;;;;;;;;;;;;;1882051;28;7026;-62
2022/12/14 04:28:04;;;;;;;;;;;;;;;;;;1882709;28;7010;-64
2022/12/14 04:30:22;;;;;;;;;;;;;;;;;;1883058;28;8001;-64
2022/12/14 04:31:22;;;;;;;;;;;;;;;;;;1875558;28;7014;-64
2022/12/14 04:32:43;;;;;;;;;;;;;;;;;;1875167;28;7058;-61
2022/12/14 04:33:45;;;;;;;;;;;;;;;;;;1878307;28;7010;-62
2022/12/14 04:34:46;;;;;;;;;;;;;;;;;;1883198;28;7006;-62
2022/12/14 04:35:44;;;;;;;;;;;;;;;;;;1882056;28;7051;-63
2022/12/14 04:37:07;;;;;;;;;;;;;;;;;;1882828;28;7113;-61
2022/12/14 04:38:20;;;;;;;;;;;;;;;;;;1880602;28;7130;-63
2022/12/14 04:39:25;;;;;;;;;;;;;;;;;;1882799;28;9390;-64
2022/12/14 04:40:25;;;;;;;;;;;;;;;;;;1882516;28;8073;-63
2022/12/14 04:41:29;;;;;;;;;;;;;;;;;;1883064;28;7181;-61
2022/12/14 04:42:31;;;;;;;;;;;;;;;;;;1882812;28;8048;-64
2022/12/14 04:43:35;;;;;;;;;;;;;;;;;;1882791;28;7010;-62
2022/12/14 04:44:36;;;;;;;;;;;;;;;;;;1883021;28;7006;-63
2022/12/14 04:45:43;;;;;;;;;;;;;;;;;;1881776;28;7120;-62
2022/12/14 04:46:43;;;;;;;;;;;;;;;;;;1882321;28;7089;-63
2022/12/14 04:47:47;;;;;;;;;;;;;;;;;;1882893;28;7423;-62
2022/12/14 04:48:50;;;;;;;;;;;;;;;;;;1882389;28;8072;-62
2022/12/14 04:49:53;;;;;;;;;;;;;;;;;;1883299;28;7097;-63
2022/12/14 04:50:55;;;;;;;;;;;;;;;;;;1883078;28;8722;-63
2022/12/14 04:52:02;;;;;;;;;;;;;;;;;;1881716;28;7074;-63
2022/12/14 04:53:24;;;;;;;;;;;;;;;;;;1883351;28;8052;-63
2022/12/14 04:54:34;;;;;;;;;;;;;;;;;;1882240;28;7066;-62
2022/12/14 04:55:52;;;;;;;;;;;;;;;;;;1883128;28;7038;-62
2022/12/14 04:57:09;;;;;;;;;;;;;;;;;;1882781;28;7153;-62
2022/12/14 04:58:14;;;;;;;;;;;;;;;;;;1882486;28;7088;-63
2022/12/14 04:59:12;;;;;;;;;;;;;;;;;;1882708;28;7114;-62
2022/12/14 05:00:10;;;;;;;;;;;;;;;;;;1882549;28;7010;-64
2022/12/14 05:01:27;;;;;;;;;;;;;;;;;;1883141;28;7025;-62
2022/12/14 05:02:45;;;;;;;;;;;;;;;;;;1878255;28;7097;-61
2022/12/14 05:04:05;;;;;;;;;;;;;;;;;;1853832;29;7006;-63
2022/12/14 05:05:27;;;;;;;;;;;;;;;;;;1869061;28;7344;-62
2022/12/14 05:06:24;;;;;;;;;;;;;;;;;;1883103;28;10344;-63
2022/12/14 05:07:33;;;;;;;;;;;;;;;;;;1883104;28;7014;-63
2022/12/14 05:08:47;;;;;;;;;;;;;;;;;;1881590;28;7018;-62
2022/12/14 05:09:51;;;;;;;;;;;;;;;;;;1882694;28;8159;-62
2022/12/14 05:10:56;;;;;;;;;;;;;;;;;;1882990;28;7388;-63
2022/12/14 05:12:21;;;;;;;;;;;;;;;;;;1882166;28;7948;-61
2022/12/14 05:13:26;;;;;;;;;;;;;;;;;;1883015;28;7006;-63
2022/12/14 05:14:31;;;;;;;;;;;;;;;;;;1882497;28;7006;-64
2022/12/14 05:15:40;;;;;;;;;;;;;;;;;;1883590;28;8024;-62
2022/12/14 05:16:37;;;;;;;;;;;;;;;;;;1882006;28;7211;-62
2022/12/14 05:17:38;;;;;;;;;;;;;;;;;;1882873;28;7096;-61
2022/12/14 05:18:37;;;;;;;;;;;;;;;;;;1883066;28;7352;-63
2022/12/14 05:19:34;;;;;;;;;;;;;;;;;;1875230;28;7149;-64
2022/12/14 05:20:31;;;;;;;;;;;;;;;;;;1875600;28;7101;-62
2022/12/14 05:21:47;;;;;;;;;;;;;;;;;;1880675;28;7006;-63
2022/12/14 05:22:45;;;;;;;;;;;;;;;;;;1886066;28;7097;-62
2022/12/14 05:23:42;;;;;;;;;;;;;;;;;;1889990;28;7034;-62
2022/12/14 05:24:39;;;;;;;;;;;;;;;;;;1884010;28;8091;-63
2022/12/14 05:25:37;;;;;;;;;;;;;;;;;;1883153;28;8106;-62
2022/12/14 05:26:34;;;;;;;;;;;;;;;;;;1883008;28;7021;-64
2022/12/14 05:27:31;;;;;;;;;;;;;;;;;;1883554;28;7257;-64
2022/12/14 05:28:29;;;;;;;;;;;;;;;;;;1883643;28;7375;-63
2022/12/14 05:29:26;;;;;;;;;;;;;;;;;;1883174;28;8090;-62
2022/12/14 05:30:23;;;;;;;;;;;;;;;;;;1883068;28;8185;-64
2022/12/14 05:31:21;;;;;;;;;;;;;;;;;;1883293;28;7092;-62
2022/12/14 05:32:19;;;;;;;;;;;;;;;;;;1882686;28;8484;-62
2022/12/14 05:33:18;;;;;;;;;;;;;;;;;;1883062;28;7068;-64
2022/12/14 05:34:16;;;;;;;;;;;;;;;;;;1883413;28;7149;-64
2022/12/14 05:35:13;;;;;;;;;;;;;;;;;;1883265;28;7089;-63
2022/12/14 05:36:11;;;;;;;;;;;;;;;;;;1883284;28;7206;-63
2022/12/14 05:37:08;;;;;;;;;;;;;;;;;;1883006;28;7021;-61
2022/12/14 05:38:14;;;;;;;;;;;;;;;;;;1883336;28;7140;-64
2022/12/14 05:39:11;;;;;;;;;;;;;;;;;;1882651;28;7105;-63
2022/12/14 05:40:09;;;;;;;;;;;;;;;;;;1883245;28;7369;-62
2022/12/14 05:41:07;;;;;;;;;;;;;;;;;;1882690;28;7128;-62
2022/12/14 05:42:04;;;;;;;;;;;;;;;;;;1883590;28;7484;-62
2022/12/14 05:43:05;;;;;;;;;;;;;;;;;;1883830;28;7002;-64
2022/12/14 05:44:03;;;;;;;;;;;;;;;;;;1882700;28;6998;-63
2022/12/14 05:45:00;;;;;;;;;;;;;;;;;;1882835;28;9019;-63
2022/12/14 05:46:02;;;;;;;;;;;;;;;;;;1882505;28;7002;-63
2022/12/14 05:46:59;;;;;;;;;;;;;;;;;;1883244;28;8265;-63
2022/12/14 05:47:57;;;;;;;;;;;;;;;;;;1882829;28;7133;-62
2022/12/14 05:48:54;;;;;;;;;;;;;;;;;;1882983;28;8026;-62
2022/12/14 05:49:52;;;;;;;;;;;;;;;;;;1882668;28;7384;-62
2022/12/14 05:50:50;;;;;;;;;;;;;;;;;;1883303;28;7010;-64
2022/12/14 05:51:48;;;;;;;;;;;;;;;;;;1882949;28;7014;-62
2022/12/14 05:52:45;;;;;;;;;;;;;;;;;;1882937;28;8036;-62
2022/12/14 05:53:42;;;;;;;;;;;;;;;;;;1882939;28;7025;-64
2022/12/14 05:54:40;;;;;;;;;;;;;;;;;;1884164;28;7308;-62
2022/12/14 05:55:37;;;;;;;;;;;;;;;;;;1890226;28;7034;-63
2022/12/14 05:56:35;;;;;;;;;;;;;;;;;;1883873;28;7156;-64
2022/12/14 05:57:32;;;;;;;;;;;;;;;;;;1883135;28;7010;-63
2022/12/14 05:58:30;;;;;;;;;;;;;;;;;;1882434;28;8091;-62
2022/12/14 05:59:27;;;;;;;;;;;;;;;;;;1882983;28;7243;-63
2022/12/14 06:00:26;;;;;;;;;;;;;;;;;;1882913;28;8216;-63
2022/12/14 06:01:23;;;;;;;;;;;;;;;;;;1883269;28;7009;-64
2022/12/14 06:02:20;;;;;;;;;;;;;;;;;;1882982;28;7093;-62
2022/12/14 06:03:19;;;;;;;;;;;;;;;;;;1882724;28;7089;-63
2022/12/14 06:04:17;;;;;;;;;;;;;;;;;;1883048;28;7147;-62
2022/12/14 06:05:14;;;;;;;;;;;;;;;;;;1882912;28;8064;-61
2022/12/14 06:06:13;;;;;;;;;;;;;;;;;;1882978;28;8262;-63
2022/12/14 06:07:11;;;;;;;;;;;;;;;;;;1883088;28;7133;-62
2022/12/14 06:08:08;;;;;;;;;;;;;;;;;;1882691;28;7042;-63
2022/12/14 06:09:07;;;;;;;;;;;;;;;;;;1882929;28;7089;-63
2022/12/14 06:10:05;;;;;;;;;;;;;;;;;;1882990;28;7998;-62
2022/12/14 06:11:04;;;;;;;;;;;;;;;;;;1882912;28;7100;-62
2022/12/14 06:12:02;;;;;;;;;;;;;;;;;;1882545;28;7010;-63
2022/12/14 06:12:59;;;;;;;;;;;;;;;;;;1882762;28;7010;-63
2022/12/14 06:13:56;;;;;;;;;;;;;;;;;;1881999;28;7009;-64
2022/12/14 06:14:54;;;;;;;;;;;;;;;;;;1882318;28;7176;-64
2022/12/14 06:15:51;;;;;;;;;;;;;;;;;;1882570;28;7389;-61
2022/12/14 06:16:49;;;;;;;;;;;;;;;;;;1882510;28;8035;-63
2022/12/14 06:17:46;;;;;;;;;;;;;;;;;;1882861;28;7010;-63
2022/12/14 06:18:45;;;;;;;;;;;;;;;;;;1883535;28;8139;-63
2022/12/14 06:19:42;;;;;;;;;;;;;;;;;;1881860;28;8211;-63
2022/12/14 06:20:46;;;;;;;;;;;;;;;;;;1882474;28;8029;-63
2022/12/14 06:21:43;;;;;;;;;;;;;;;;;;1883133;28;8035;-61
2022/12/14 06:22:41;;;;;;;;;;;;;;;;;;1882806;28;7009;-62
2022/12/14 06:23:44;;;;;;;;;;;;;;;;;;1882748;28;8003;-61
2022/12/14 06:24:41;;;;;;;;;;;;;;;;;;1882984;28;7006;-61
2022/12/14 06:25:39;;;;;;;;;;;;;;;;;;1882060;28;8997;-62
2022/12/14 06:26:36;;;;;;;;;;;;;;;;;;1882912;28;7010;-62
2022/12/14 06:27:34;;;;;;;;;;;;;;;;;;1883121;28;7047;-63
2022/12/14 06:28:31;;;;;;;;;;;;;;;;;;1882858;28;7005;-64
2022/12/14 06:29:29;;;;;;;;;;;;;;;;;;1882831;28;7010;-63
2022/12/14 06:30:27;;;;;;;;;;;;;;;;;;1882947;28;7046;-62
2022/12/14 06:31:26;;;;;;;;;;;;;;;;;;1882906;28;8026;-61
2022/12/14 06:32:24;;;;;;;;;;;;;;;;;;1881891;28;7010;-62
2022/12/14 06:33:22;;;;;;;;;;;;;;;;;;1882590;28;7208;-64
2022/12/14 06:34:19;;;;;;;;;;;;;;;;;;1875345;28;7017;-61
2022/12/14 06:35:24;;;;;;;;;;;;;;;;;;1874810;28;7285;-63
2022/12/14 06:36:26;;;;;;;;;;;;;;;;;;1881955;28;8181;-62
2022/12/14 06:37:24;;;;;;;;;;;;;;;;;;1882356;28;7124;-63
2022/12/14 06:38:21;;;;;;;;;;;;;;;;;;1881478;28;9861;-62
2022/12/14 06:39:19;;;;;;;;;;;;;;;;;;1882816;28;7078;-64
2022/12/14 06:40:16;;;;;;;;;;;;;;;;;;1882500;28;7371;-62
2022/12/14 06:41:13;;;;;;;;;;;;;;;;;;1883133;28;7092;-64
2022/12/14 06:42:11;;;;;;;;;;;;;;;;;;1883011;28;8121;-63
2022/12/14 06:43:08;;;;;;;;;;;;;;;;;;1882678;28;7368;-62
2022/12/14 06:44:08;;;;;;;;;;;;;;;;;;1882793;28;8786;-62
2022/12/14 06:45:06;;;;;;;;;;;;;;;;;;1881983;28;7096;-63
2022/12/14 06:46:07;;;;;;;;;;;;;;;;;;1882891;28;7009;-64
2022/12/14 06:47:11;;;;;;;;;;;;;;;;;;1882671;28;7239;-63
2022/12/14 06:48:08;;;;;;;;;;;;;;;;;;1881474;28;7014;-63
2022/12/14 06:49:06;;;;;;;;;;;;;;;;;;1882520;28;7101;-62
2022/12/14 06:50:03;;;;;;;;;;;;;;;;;;1882688;28;7014;-62
2022/12/14 06:51:01;;;;;;;;;;;;;;;;;;1883300;28;8637;-63
2022/12/14 06:51:59;;;;;;;;;;;;;;;;;;1882352;28;8095;-63
2022/12/14 06:52:56;;;;;;;;;;;;;;;;;;1882800;28;8029;-62
2022/12/14 06:53:55;;;;;;;;;;;;;;;;;;1881748;28;7074;-63
2022/12/14 06:54:52;;;;;;;;;;;;;;;;;;1881938;28;8034;-61
2022/12/14 06:55:49;;;;;;;;;;;;;;;;;;1882567;28;7046;-63
2022/12/14 06:56:47;;;;;;;;;;;;;;;;;;1882295;28;7026;-63
2022/12/14 06:57:44;;;;;;;;;;;;;;;;;;1883015;28;7157;-63
2022/12/14 06:58:42;;;;;;;;;;;;;;;;;;1882352;28;7010;-63
2022/12/14 06:59:40;;;;;;;;;;;;;;;;;;1881497;28;7268;-63
2022/12/14 07:00:37;;;;;;;;;;;;;;;;;;1882293;28;8032;-63
2022/12/14 07:01:35;;;;;;;;;;;;;;;;;;1883519;28;7353;-63
2022/12/14 07:02:33;;;;;;;;;;;;;;;;;;1882602;28;7205;-64
2022/12/14 07:03:30;;;;;;;;;;;;;;;;;;1882399;28;7006;-63
2022/12/14 07:04:29;;;;;;;;;;;;;;;;;;1882934;28;8018;-63
2022/12/14 07:05:26;;;;;;;;;;;;;;;;;;1882627;28;7142;-64
2022/12/14 07:06:25;;;;;;;;;;;;;;;;;;1882341;28;7006;-63
2022/12/14 07:07:22;;;;;;;;;;;;;;;;;;1882215;28;7337;-63
2022/12/14 07:08:20;;;;;;;;;;;;;;;;;;1882978;28;7038;-62
2022/12/14 07:09:17;;;;;;;;;;;;;;;;;;1882968;28;7013;-62
2022/12/14 07:10:14;;;;;;;;;;;;;;;;;;1883061;28;7005;-62
2022/12/14 07:11:13;;;;;;;;;;;;;;;;;;1882641;28;7101;-63
2022/12/14 07:12:11;;;;;;;;;;;;;;;;;;1882612;28;7045;-63
2022/12/14 07:13:08;;;;;;;;;;;;;;;;;;1881686;28;7005;-64
2022/12/14 07:14:06;;;;;;;;;;;;;;;;;;1881877;28;7034;-63
2022/12/14 07:15:03;;;;;;;;;;;;;;;;;;1882482;28;7114;-63
2022/12/14 07:16:03;;;;;;;;;;;;;;;;;;1881690;28;7014;-63
2022/12/14 07:17:01;;;;;;;;;;;;;;;;;;1881824;28;7010;-62
2022/12/14 07:17:58;;;;;;;;;;;;;;;;;;1882201;28;7969;-62
2022/12/14 07:18:55;;;;;;;;;;;;;;;;;;1882838;28;8005;-63